createdAt,value
2023-08-13T00:02:51.345Z,100477.80
2023-08-13T00:07:54.423Z,100477.60
2023-08-13T00:12:57.307Z,100476.80
2023-08-13T00:18:00.280Z,100484.00
2023-08-13T00:23:04.019Z,100477.60
2023-08-13T00:28:07.116Z,100474.80
2023-08-13T00:33:10.068Z,100476.40
2023-08-13T00:38:13.084Z,100471.60
2023-08-13T00:43:15.993Z,100471.20
2023-08-13T00:48:20.086Z,100463.40
2023-08-13T00:53:24.321Z,100461.00
2023-08-13T00:58:27.262Z,100459.80
2023-08-13T01:03:30.300Z,100458.40
2023-08-13T01:08:57.160Z,100448.20
2023-08-13T01:14:54.372Z,100445.60
2023-08-13T01:20:01.008Z,100439.60
2023-08-13T01:25:08.494Z,100430.40
2023-08-13T01:30:21.409Z,100423.80
2023-08-13T01:35:27.509Z,100431.60
2023-08-13T01:40:30.543Z,100430.60
2023-08-13T01:45:33.412Z,100424.00
2023-08-13T01:50:42.663Z,100413.40
2023-08-13T01:55:45.689Z,100408.60
2023-08-13T02:00:48.706Z,100402.00
2023-08-13T02:05:51.624Z,100409.40
2023-08-13T02:10:54.480Z,100413.00
2023-08-13T02:16:06.002Z,100405.80
2023-08-13T02:21:09.071Z,100414.20
2023-08-13T02:26:14.447Z,100409.40
2023-08-13T02:31:17.407Z,100401.20
2023-08-13T02:36:20.458Z,100402.60
2023-08-13T02:41:23.543Z,100404.20
2023-08-13T02:46:28.338Z,100401.60
2023-08-13T02:51:31.285Z,100402.20
2023-08-13T02:56:34.124Z,100400.60
2023-08-13T03:01:37.288Z,100399.00
2023-08-13T03:06:40.357Z,100396.60
2023-08-13T03:11:43.230Z,100395.20
2023-08-13T03:16:46.223Z,100397.00
2023-08-13T03:21:49.412Z,100397.80
2023-08-13T03:26:52.287Z,100402.00
2023-08-13T03:31:55.236Z,100398.00
2023-08-13T03:36:58.200Z,100386.80
2023-08-13T03:42:01.067Z,100369.00
2023-08-13T03:47:04.046Z,100384.60
2023-08-13T03:52:07.128Z,100368.80
2023-08-13T03:57:09.992Z,100377.00
2023-08-13T04:02:13.323Z,100371.80
2023-08-13T04:07:16.761Z,100363.20
2023-08-13T04:12:19.659Z,100363.40
2023-08-13T04:17:22.854Z,100360.20
2023-08-13T04:22:25.914Z,100355.40
2023-08-13T04:27:28.886Z,100361.00
2023-08-13T04:32:33.399Z,100360.40
2023-08-13T04:37:36.308Z,100353.60
2023-08-13T04:42:39.285Z,100349.40
2023-08-13T04:47:42.421Z,100361.80
2023-08-13T04:52:45.363Z,100366.60
2023-08-13T04:57:48.237Z,100368.60
2023-08-13T05:02:51.098Z,100366.40
2023-08-13T05:07:54.021Z,100365.60
2023-08-13T05:12:56.860Z,100366.40
2023-08-13T05:17:59.871Z,100369.60
2023-08-13T05:23:03.211Z,100364.20
2023-08-13T05:28:10.752Z,100371.00
2023-08-13T05:33:13.787Z,100368.60
2023-08-13T05:38:16.736Z,100377.00
2023-08-13T05:43:19.664Z,100378.60
2023-08-13T05:48:22.536Z,100377.40
2023-08-13T05:53:25.499Z,100379.20
2023-08-13T05:58:28.374Z,100378.80
2023-08-13T06:03:31.362Z,100374.80
2023-08-13T06:08:34.373Z,100380.00
2023-08-13T06:13:40.384Z,100380.80
2023-08-13T06:18:43.944Z,100379.40
2023-08-13T06:23:46.883Z,100376.80
2023-08-13T06:28:49.721Z,100384.20
2023-08-13T06:33:52.799Z,100391.20
2023-08-13T06:38:55.686Z,100396.20
2023-08-13T06:43:58.608Z,100401.60
2023-08-13T06:49:01.765Z,100402.80
2023-08-13T06:54:05.791Z,100407.40
2023-08-13T06:59:09.264Z,100409.60
2023-08-13T07:04:13.553Z,100417.60
2023-08-13T07:09:16.599Z,100415.00
2023-08-13T07:14:21.596Z,100416.60
2023-08-13T07:19:26.235Z,100415.80
2023-08-13T07:24:30.851Z,100424.40
2023-08-13T07:29:33.994Z,100421.60
2023-08-13T07:34:37.121Z,100428.00
2023-08-13T07:39:41.331Z,100428.60
2023-08-13T07:44:44.464Z,100426.80
2023-08-13T07:49:47.839Z,100426.60
2023-08-13T07:54:50.877Z,100428.80
2023-08-13T07:59:53.915Z,100432.20
2023-08-13T08:04:57.055Z,100436.60
2023-08-13T08:10:00.241Z,100439.20
2023-08-13T08:15:05.329Z,100446.40
2023-08-13T08:20:09.329Z,100444.80
2023-08-13T08:25:12.604Z,100451.80
2023-08-13T08:30:15.560Z,100452.60
2023-08-13T08:35:18.712Z,100461.80
2023-08-13T08:40:22.205Z,100466.40
2023-08-13T08:45:25.964Z,100462.00
2023-08-13T08:50:30.462Z,100470.20
2023-08-13T08:55:33.998Z,100467.20
2023-08-13T09:00:36.892Z,100473.80
2023-08-13T09:05:39.992Z,100469.00
2023-08-13T09:10:46.013Z,100465.80
2023-08-13T09:15:50.161Z,100463.00
2023-08-13T09:20:53.080Z,100462.00
2023-08-13T09:25:59.100Z,100469.40
2023-08-13T09:31:02.269Z,100467.40
2023-08-13T09:36:05.445Z,100468.80
2023-08-13T09:41:14.724Z,100464.80
2023-08-13T09:46:22.904Z,100463.60
2023-08-13T09:51:38.401Z,100467.00
2023-08-13T09:56:51.504Z,100466.60
2023-08-13T10:01:55.910Z,100467.20
2023-08-13T10:07:01.220Z,100465.40
2023-08-13T10:12:11.347Z,100473.40
2023-08-13T10:17:19.712Z,100473.00
2023-08-13T10:22:38.632Z,100473.40
2023-08-13T10:27:45.225Z,100473.60
2023-08-13T10:33:00.734Z,100465.00
2023-08-13T10:38:11.985Z,100479.60
2023-08-13T10:43:22.134Z,100477.00
2023-08-13T10:48:30.712Z,100475.60
2023-08-13T10:53:36.354Z,100481.20
2023-08-13T10:58:42.840Z,100485.00
2023-08-13T11:03:48.448Z,100484.60
2023-08-13T11:08:52.362Z,100479.20
2023-08-13T11:13:55.571Z,100482.20
2023-08-13T11:19:00.418Z,100482.40
2023-08-13T11:24:03.801Z,100485.80
2023-08-13T11:29:07.296Z,100488.20
2023-08-13T11:34:10.171Z,100493.60
2023-08-13T11:39:14.440Z,100491.20
2023-08-13T11:44:17.354Z,100489.40
2023-08-13T11:49:20.686Z,100486.00
2023-08-13T11:54:25.992Z,100489.60
2023-08-13T11:59:32.901Z,100484.40
2023-08-13T12:04:49.159Z,100478.20
2023-08-13T12:09:53.199Z,100484.40
2023-08-13T12:14:56.329Z,100486.60
2023-08-13T12:19:59.643Z,100486.40
2023-08-13T12:25:08.041Z,100486.40
2023-08-13T12:30:13.703Z,100486.20
2023-08-13T12:35:16.953Z,100494.20
2023-08-13T12:40:22.449Z,100484.00
2023-08-13T12:45:25.464Z,100493.40
2023-08-13T12:50:28.569Z,100489.00
2023-08-13T12:55:31.506Z,100487.40
2023-08-13T13:00:34.525Z,100496.20
2023-08-13T13:05:37.459Z,100497.60
2023-08-13T13:10:40.437Z,100494.20
2023-08-13T13:15:44.336Z,100495.00
2023-08-13T13:20:47.536Z,100495.80
2023-08-13T13:25:50.366Z,100501.20
2023-08-13T13:30:53.254Z,100503.60
2023-08-13T13:35:56.171Z,100501.20
2023-08-13T13:40:59.152Z,100507.40
2023-08-13T13:46:02.669Z,100509.60
2023-08-13T13:51:05.665Z,100509.00
2023-08-13T13:56:08.606Z,100512.80
2023-08-13T14:01:11.869Z,100503.60
2023-08-13T14:06:16.906Z,100505.40
2023-08-13T14:11:19.882Z,100500.20
2023-08-13T14:16:22.982Z,100503.80
2023-08-13T14:21:26.061Z,100515.40
2023-08-13T14:26:29.077Z,100522.40
2023-08-13T14:31:32.132Z,100519.80
2023-08-13T14:36:35.728Z,100524.60
2023-08-13T14:41:38.877Z,100516.00
2023-08-13T14:46:44.942Z,100518.20
2023-08-13T14:51:47.816Z,100518.60
2023-08-13T14:56:50.686Z,100520.60
2023-08-13T15:01:53.586Z,100521.00
2023-08-13T15:06:56.586Z,100522.60
2023-08-13T15:12:02.403Z,100524.60
2023-08-13T15:17:05.431Z,100524.40
2023-08-13T15:22:08.299Z,100525.40
2023-08-13T15:27:11.238Z,100528.80
2023-08-13T15:32:15.851Z,100528.40
2023-08-13T15:37:19.067Z,100529.00
2023-08-13T15:42:21.973Z,100531.80
2023-08-13T15:47:25.444Z,100535.60
2023-08-13T15:52:32.728Z,100538.80
2023-08-13T15:57:35.997Z,100544.00
2023-08-13T16:02:41.787Z,100548.00
2023-08-13T16:07:47.411Z,100556.40
2023-08-13T16:12:50.664Z,100555.80
2023-08-13T16:17:55.358Z,100555.60
2023-08-13T16:23:00.487Z,100556.60
2023-08-13T16:28:03.984Z,100557.60
2023-08-13T16:33:07.986Z,100564.20
2023-08-13T16:38:14.615Z,100576.80
2023-08-13T16:43:17.945Z,100572.00
2023-08-13T16:48:21.080Z,100580.40
2023-08-13T16:53:23.973Z,100584.00
2023-08-13T16:58:26.859Z,100579.20
2023-08-13T17:03:30.133Z,100577.40
2023-08-13T17:08:33.238Z,100584.80
2023-08-13T17:13:36.443Z,100589.20
2023-08-13T17:18:39.592Z,100597.40
2023-08-13T17:23:42.642Z,100615.80
2023-08-13T17:28:45.493Z,100619.20
2023-08-13T17:33:48.364Z,100629.80
2023-08-13T17:38:51.213Z,100629.40
2023-08-13T17:43:54.269Z,100634.40
2023-08-13T17:48:59.746Z,100641.20
2023-08-13T17:54:06.338Z,100645.40
2023-08-13T17:59:09.919Z,100650.60
2023-08-13T18:04:13.116Z,100658.80
2023-08-13T18:09:18.695Z,100667.00
2023-08-13T18:14:23.063Z,100681.40
2023-08-13T18:19:26.799Z,100682.00
2023-08-13T18:24:29.870Z,100686.80
2023-08-13T18:29:32.954Z,100694.80
2023-08-13T18:34:49.235Z,100697.40
2023-08-13T18:39:52.557Z,100697.20
2023-08-13T18:44:56.885Z,100704.80
2023-08-13T18:50:00.005Z,100715.40
2023-08-13T18:55:03.013Z,100709.60
2023-08-13T19:00:08.722Z,100724.40
2023-08-13T19:05:12.379Z,100726.00
2023-08-13T19:10:15.631Z,100729.20
2023-08-13T19:15:18.648Z,100741.80
2023-08-13T19:20:21.707Z,100740.00
2023-08-13T19:25:25.143Z,100745.00
2023-08-13T19:30:28.256Z,100749.40
2023-08-13T19:35:31.291Z,100753.20
2023-08-13T19:40:42.247Z,100750.80
2023-08-13T19:45:45.753Z,100752.40
2023-08-13T19:50:54.305Z,100757.40
2023-08-13T19:55:57.797Z,100760.00
2023-08-13T20:01:02.427Z,100757.80
2023-08-13T20:06:08.205Z,100750.20
2023-08-13T20:11:22.839Z,100754.20
2023-08-13T20:16:29.466Z,100750.80
2023-08-13T20:21:52.833Z,100752.00
2023-08-13T20:26:57.821Z,100757.80
2023-08-13T20:32:02.553Z,100757.60
2023-08-13T20:37:06.277Z,100755.40
2023-08-13T20:42:11.213Z,100754.20
2023-08-13T20:47:17.023Z,100754.00
2023-08-13T20:52:20.421Z,100751.20
2023-08-13T20:57:23.324Z,100755.80
2023-08-13T21:02:26.296Z,100759.40
2023-08-13T21:07:29.173Z,100761.40
2023-08-13T21:12:32.165Z,100768.60
2023-08-13T21:17:35.210Z,100773.40
2023-08-13T21:22:38.356Z,100768.00
2023-08-13T21:27:41.351Z,100758.20
2023-08-13T21:32:45.819Z,100767.00
2023-08-13T21:37:48.734Z,100756.60
2023-08-13T21:42:52.278Z,100753.00
2023-08-13T21:47:55.282Z,100751.00
2023-08-13T21:52:58.251Z,100753.20
2023-08-13T21:58:01.296Z,100752.40
2023-08-13T22:03:05.133Z,100748.20
2023-08-13T22:08:09.220Z,100756.20
2023-08-13T22:13:12.318Z,100748.40
2023-08-13T22:18:15.293Z,100747.20
2023-08-13T22:23:18.370Z,100751.60
2023-08-13T22:28:22.449Z,100748.80
2023-08-13T22:33:25.453Z,100744.20
2023-08-13T22:38:29.117Z,100745.40
2023-08-13T22:43:32.330Z,100747.00
2023-08-13T22:48:35.298Z,100744.80
2023-08-13T22:53:38.281Z,100747.20
2023-08-13T22:58:41.418Z,100744.20
2023-08-13T23:03:45.147Z,100745.40
2023-08-13T23:08:48.713Z,100751.60
2023-08-13T23:13:51.621Z,100754.00
2023-08-13T23:18:54.568Z,100752.20
2023-08-13T23:24:00.347Z,100754.60
2023-08-13T23:29:03.311Z,100757.40
2023-08-13T23:34:06.309Z,100756.60
2023-08-13T23:39:09.420Z,100757.20
2023-08-13T23:44:12.332Z,100759.40
2023-08-13T23:49:15.229Z,100756.80
2023-08-13T23:54:18.187Z,100757.00
2023-08-13T23:59:21.644Z,100756.20
